sensor_id;sensor_type;location;lat;lon;timestamp;P1;durP1;ratioP1;P2;durP2;ratioP2
7213;SDS011;3648;50.614;13.830;2023-08-31T00:01:03;2.40;;;2.20;;
7213;SDS011;3648;50.614;13.830;2023-08-31T00:03:30;2.50;;;2.30;;
7213;SDS011;3648;50.614;13.830;2023-08-31T00:05:57;3.23;;;2.83;;
7213;SDS011;3648;50.614;13.830;2023-08-31T00:08:27;2.93;;;2.53;;
7213;SDS011;3648;50.614;13.830;2023-08-31T00:10:56;3.07;;;2.57;;
7213;SDS011;3648;50.614;13.830;2023-08-31T00:13:24;4.33;;;2.60;;
7213;SDS011;3648;50.614;13.830;2023-08-31T00:15:53;3.80;;;2.30;;
7213;SDS011;3648;50.614;13.830;2023-08-31T00:18:21;3.33;;;2.80;;
7213;SDS011;3648;50.614;13.830;2023-08-31T00:20:49;2.90;;;2.60;;
7213;SDS011;3648;50.614;13.830;2023-08-31T00:23:16;3.00;;;2.70;;
7213;SDS011;3648;50.614;13.830;2023-08-31T00:25:44;3.00;;;2.70;;
7213;SDS011;3648;50.614;13.830;2023-08-31T00:28:14;3.03;;;2.83;;
7213;SDS011;3648;50.614;13.830;2023-08-31T00:30:43;2.60;;;2.40;;
7213;SDS011;3648;50.614;13.830;2023-08-31T00:33:11;4.00;;;2.70;;
7213;SDS011;3648;50.614;13.830;2023-08-31T00:35:37;3.67;;;2.90;;
7213;SDS011;3648;50.614;13.830;2023-08-31T00:38:07;4.27;;;2.97;;
7213;SDS011;3648;50.614;13.830;2023-08-31T00:40:38;3.37;;;2.70;;
7213;SDS011;3648;50.614;13.830;2023-08-31T00:43:07;3.03;;;2.73;;
7213;SDS011;3648;50.614;13.830;2023-08-31T00:45:36;2.87;;;2.60;;
7213;SDS011;3648;50.614;13.830;2023-08-31T00:48:05;2.90;;;2.70;;
7213;SDS011;3648;50.614;13.830;2023-08-31T00:50:33;3.63;;;3.00;;
7213;SDS011;3648;50.614;13.830;2023-08-31T00:53:00;3.00;;;2.53;;
7213;SDS011;3648;50.614;13.830;2023-08-31T00:55:28;2.73;;;2.47;;
7213;SDS011;3648;50.614;13.830;2023-08-31T00:57:55;3.53;;;2.80;;
7213;SDS011;3648;50.614;13.830;2023-08-31T01:00:22;2.83;;;2.57;;
7213;SDS011;3648;50.614;13.830;2023-08-31T01:02:58;3.13;;;2.83;;
7213;SDS011;3648;50.614;13.830;2023-08-31T01:05:33;3.30;;;3.00;;
7213;SDS011;3648;50.614;13.830;2023-08-31T01:08:12;2.70;;;2.50;;
7213;SDS011;3648;50.614;13.830;2023-08-31T01:10:51;2.50;;;2.30;;
7213;SDS011;3648;50.614;13.830;2023-08-31T01:13:24;2.73;;;2.50;;
7213;SDS011;3648;50.614;13.830;2023-08-31T01:15:54;3.03;;;2.73;;
7213;SDS011;3648;50.614;13.830;2023-08-31T01:18:27;3.73;;;2.50;;
7213;SDS011;3648;50.614;13.830;2023-08-31T01:20:58;3.37;;;2.97;;
7213;SDS011;3648;50.614;13.830;2023-08-31T01:23:39;2.77;;;2.57;;
7213;SDS011;3648;50.614;13.830;2023-08-31T01:26:13;3.00;;;2.80;;
7213;SDS011;3648;50.614;13.830;2023-08-31T01:28:40;3.27;;;2.97;;
7213;SDS011;3648;50.614;13.830;2023-08-31T01:31:07;3.50;;;3.20;;
7213;SDS011;3648;50.614;13.830;2023-08-31T01:33:34;3.10;;;2.90;;
7213;SDS011;3648;50.614;13.830;2023-08-31T01:36:01;2.80;;;2.60;;
7213;SDS011;3648;50.614;13.830;2023-08-31T01:38:33;2.93;;;2.73;;
7213;SDS011;3648;50.614;13.830;2023-08-31T01:41:06;3.27;;;2.97;;
7213;SDS011;3648;50.614;13.830;2023-08-31T01:43:37;4.87;;;3.57;;
7213;SDS011;3648;50.614;13.830;2023-08-31T01:46:07;3.80;;;3.50;;
7213;SDS011;3648;50.614;13.830;2023-08-31T01:48:37;3.43;;;3.13;;
7213;SDS011;3648;50.614;13.830;2023-08-31T01:51:06;3.63;;;3.30;;
7213;SDS011;3648;50.614;13.830;2023-08-31T01:53:34;4.50;;;3.80;;
7213;SDS011;3648;50.614;13.830;2023-08-31T01:56:01;3.83;;;3.43;;
7213;SDS011;3648;50.614;13.830;2023-08-31T01:58:29;3.20;;;2.90;;
7213;SDS011;3648;50.614;13.830;2023-08-31T02:00:56;3.70;;;3.37;;
7213;SDS011;3648;50.614;13.830;2023-08-31T02:03:23;4.77;;;4.30;;
7213;SDS011;3648;50.614;13.830;2023-08-31T02:05:50;3.83;;;3.53;;
7213;SDS011;3648;50.614;13.830;2023-08-31T02:08:17;4.70;;;3.77;;
7213;SDS011;3648;50.614;13.830;2023-08-31T02:10:45;4.87;;;3.40;;
7213;SDS011;3648;50.614;13.830;2023-08-31T02:13:13;4.07;;;3.70;;
7213;SDS011;3648;50.614;13.830;2023-08-31T02:15:43;3.63;;;3.07;;
7213;SDS011;3648;50.614;13.830;2023-08-31T02:18:10;4.73;;;3.90;;
7213;SDS011;3648;50.614;13.830;2023-08-31T02:20:37;4.40;;;4.00;;
7213;SDS011;3648;50.614;13.830;2023-08-31T02:23:04;3.87;;;3.30;;
7213;SDS011;3648;50.614;13.830;2023-08-31T02:25:31;4.27;;;3.87;;
7213;SDS011;3648;50.614;13.830;2023-08-31T02:27:58;4.37;;;3.97;;
7213;SDS011;3648;50.614;13.830;2023-08-31T02:30:25;4.33;;;3.73;;
7213;SDS011;3648;50.614;13.830;2023-08-31T02:32:53;4.17;;;3.77;;
7213;SDS011;3648;50.614;13.830;2023-08-31T02:35:20;4.57;;;4.13;;
7213;SDS011;3648;50.614;13.830;2023-08-31T02:37:47;4.30;;;3.90;;
7213;SDS011;3648;50.614;13.830;2023-08-31T02:40:14;4.00;;;3.60;;
7213;SDS011;3648;50.614;13.830;2023-08-31T02:42:42;4.00;;;3.60;;
7213;SDS011;3648;50.614;13.830;2023-08-31T02:45:09;5.20;;;3.73;;
7213;SDS011;3648;50.614;13.830;2023-08-31T02:47:36;4.37;;;3.87;;
7213;SDS011;3648;50.614;13.830;2023-08-31T02:50:05;4.60;;;4.20;;
7213;SDS011;3648;50.614;13.830;2023-08-31T02:52:33;4.20;;;3.80;;
7213;SDS011;3648;50.614;13.830;2023-08-31T02:55:00;5.60;;;4.90;;
7213;SDS011;3648;50.614;13.830;2023-08-31T02:57:27;7.40;;;4.47;;
7213;SDS011;3648;50.614;13.830;2023-08-31T02:59:55;5.23;;;4.37;;
7213;SDS011;3648;50.614;13.830;2023-08-31T03:02:22;4.33;;;3.93;;
7213;SDS011;3648;50.614;13.830;2023-08-31T03:04:49;5.60;;;4.50;;
7213;SDS011;3648;50.614;13.830;2023-08-31T03:07:18;4.70;;;3.97;;
7213;SDS011;3648;50.614;13.830;2023-08-31T03:09:48;4.93;;;4.43;;
7213;SDS011;3648;50.614;13.830;2023-08-31T03:12:15;5.47;;;4.97;;
7213;SDS011;3648;50.614;13.830;2023-08-31T03:14:42;5.50;;;4.53;;
7213;SDS011;3648;50.614;13.830;2023-08-31T03:17:09;5.00;;;4.50;;
7213;SDS011;3648;50.614;13.830;2023-08-31T03:19:36;4.70;;;4.30;;
7213;SDS011;3648;50.614;13.830;2023-08-31T03:22:03;5.30;;;4.60;;
7213;SDS011;3648;50.614;13.830;2023-08-31T03:24:32;5.83;;;5.13;;
7213;SDS011;3648;50.614;13.830;2023-08-31T03:26:59;6.20;;;4.87;;
7213;SDS011;3648;50.614;13.830;2023-08-31T03:29:28;5.03;;;4.20;;
7213;SDS011;3648;50.614;13.830;2023-08-31T03:31:57;6.03;;;4.63;;
7213;SDS011;3648;50.614;13.830;2023-08-31T03:34:24;4.97;;;4.27;;
7213;SDS011;3648;50.614;13.830;2023-08-31T03:36:54;5.00;;;4.53;;
7213;SDS011;3648;50.614;13.830;2023-08-31T03:39:21;5.30;;;4.80;;
7213;SDS011;3648;50.614;13.830;2023-08-31T03:41:49;5.73;;;5.23;;
7213;SDS011;3648;50.614;13.830;2023-08-31T03:44:16;5.00;;;4.50;;
7213;SDS011;3648;50.614;13.830;2023-08-31T03:46:43;6.97;;;4.80;;
7213;SDS011;3648;50.614;13.830;2023-08-31T03:49:10;5.20;;;4.70;;
7213;SDS011;3648;50.614;13.830;2023-08-31T03:51:37;4.80;;;4.40;;
7213;SDS011;3648;50.614;13.830;2023-08-31T03:54:04;4.90;;;4.50;;
7213;SDS011;3648;50.614;13.830;2023-08-31T03:56:31;5.20;;;4.70;;
7213;SDS011;3648;50.614;13.830;2023-08-31T03:59:01;4.77;;;4.37;;
7213;SDS011;3648;50.614;13.830;2023-08-31T04:01:28;5.00;;;4.50;;
7213;SDS011;3648;50.614;13.830;2023-08-31T04:03:56;4.70;;;4.30;;
7213;SDS011;3648;50.614;13.830;2023-08-31T04:06:23;5.00;;;4.50;;
7213;SDS011;3648;50.614;13.830;2023-08-31T04:08:50;7.57;;;4.60;;
7213;SDS011;3648;50.614;13.830;2023-08-31T04:11:17;5.40;;;4.90;;
7213;SDS011;3648;50.614;13.830;2023-08-31T04:13:44;5.10;;;4.60;;
7213;SDS011;3648;50.614;13.830;2023-08-31T04:16:12;5.10;;;4.60;;
7213;SDS011;3648;50.614;13.830;2023-08-31T04:18:39;4.87;;;4.47;;
7213;SDS011;3648;50.614;13.830;2023-08-31T04:21:06;5.13;;;4.63;;
7213;SDS011;3648;50.614;13.830;2023-08-31T04:23:34;6.37;;;5.77;;
7213;SDS011;3648;50.614;13.830;2023-08-31T04:26:05;4.80;;;4.40;;
7213;SDS011;3648;50.614;13.830;2023-08-31T04:28:36;4.60;;;4.10;;
7213;SDS011;3648;50.614;13.830;2023-08-31T04:31:04;7.47;;;4.37;;
7213;SDS011;3648;50.614;13.830;2023-08-31T04:33:33;5.10;;;4.50;;
7213;SDS011;3648;50.614;13.830;2023-08-31T04:36:00;6.40;;;4.63;;
7213;SDS011;3648;50.614;13.830;2023-08-31T04:38:28;5.20;;;4.73;;
7213;SDS011;3648;50.614;13.830;2023-08-31T04:40:57;4.70;;;4.30;;
7213;SDS011;3648;50.614;13.830;2023-08-31T04:43:25;5.67;;;5.17;;
7213;SDS011;3648;50.614;13.830;2023-08-31T04:45:52;6.33;;;5.20;;
7213;SDS011;3648;50.614;13.830;2023-08-31T04:48:20;4.47;;;4.07;;
7213;SDS011;3648;50.614;13.830;2023-08-31T04:50:48;4.80;;;4.30;;
7213;SDS011;3648;50.614;13.830;2023-08-31T04:53:15;4.60;;;4.17;;
7213;SDS011;3648;50.614;13.830;2023-08-31T04:55:42;5.67;;;4.70;;
7213;SDS011;3648;50.614;13.830;2023-08-31T04:58:09;8.60;;;4.60;;
7213;SDS011;3648;50.614;13.830;2023-08-31T05:00:36;4.73;;;4.07;;
7213;SDS011;3648;50.614;13.830;2023-08-31T05:03:04;5.30;;;4.30;;
7213;SDS011;3648;50.614;13.830;2023-08-31T05:05:31;5.07;;;4.57;;
7213;SDS011;3648;50.614;13.830;2023-08-31T05:07:59;5.70;;;4.40;;
7213;SDS011;3648;50.614;13.830;2023-08-31T05:10:26;4.73;;;4.27;;
7213;SDS011;3648;50.614;13.830;2023-08-31T05:12:53;5.87;;;4.57;;
7213;SDS011;3648;50.614;13.830;2023-08-31T05:15:20;6.00;;;4.77;;
7213;SDS011;3648;50.614;13.830;2023-08-31T05:17:48;5.80;;;4.47;;
7213;SDS011;3648;50.614;13.830;2023-08-31T05:20:15;4.97;;;4.30;;
7213;SDS011;3648;50.614;13.830;2023-08-31T05:22:42;5.97;;;5.37;;
7213;SDS011;3648;50.614;13.830;2023-08-31T05:25:10;4.67;;;4.17;;
7213;SDS011;3648;50.614;13.830;2023-08-31T05:27:37;5.03;;;4.53;;
7213;SDS011;3648;50.614;13.830;2023-08-31T05:30:05;5.80;;;4.73;;
7213;SDS011;3648;50.614;13.830;2023-08-31T05:32:32;4.67;;;4.27;;
7213;SDS011;3648;50.614;13.830;2023-08-31T05:35:00;5.90;;;4.73;;
7213;SDS011;3648;50.614;13.830;2023-08-31T05:37:30;4.37;;;3.97;;
7213;SDS011;3648;50.614;13.830;2023-08-31T05:39:59;5.03;;;4.47;;
7213;SDS011;3648;50.614;13.830;2023-08-31T05:42:27;5.23;;;4.73;;
7213;SDS011;3648;50.614;13.830;2023-08-31T05:44:54;4.87;;;3.83;;
7213;SDS011;3648;50.614;13.830;2023-08-31T05:47:21;4.20;;;3.87;;
7213;SDS011;3648;50.614;13.830;2023-08-31T05:49:48;3.90;;;3.60;;
7213;SDS011;3648;50.614;13.830;2023-08-31T05:52:16;3.70;;;3.40;;
7213;SDS011;3648;50.614;13.830;2023-08-31T05:54:43;4.33;;;3.93;;
7213;SDS011;3648;50.614;13.830;2023-08-31T05:57:10;3.90;;;3.53;;
7213;SDS011;3648;50.614;13.830;2023-08-31T05:59:38;4.80;;;3.57;;
7213;SDS011;3648;50.614;13.830;2023-08-31T06:02:05;3.60;;;3.30;;
7213;SDS011;3648;50.614;13.830;2023-08-31T06:04:34;4.53;;;4.10;;
7213;SDS011;3648;50.614;13.830;2023-08-31T06:07:00;3.60;;;3.00;;
7213;SDS011;3648;50.614;13.830;2023-08-31T06:09:28;3.43;;;3.13;;
7213;SDS011;3648;50.614;13.830;2023-08-31T06:11:55;4.83;;;3.80;;
7213;SDS011;3648;50.614;13.830;2023-08-31T06:14:22;3.70;;;3.10;;
7213;SDS011;3648;50.614;13.830;2023-08-31T06:16:50;2.87;;;2.57;;
7213;SDS011;3648;50.614;13.830;2023-08-31T06:19:17;4.97;;;3.57;;
7213;SDS011;3648;50.614;13.830;2023-08-31T06:21:44;3.53;;;3.00;;
7213;SDS011;3648;50.614;13.830;2023-08-31T06:24:11;3.03;;;2.83;;
7213;SDS011;3648;50.614;13.830;2023-08-31T06:26:38;4.17;;;2.70;;
7213;SDS011;3648;50.614;13.830;2023-08-31T06:29:05;3.03;;;2.50;;
7213;SDS011;3648;50.614;13.830;2023-08-31T06:31:34;2.97;;;2.73;;
7213;SDS011;3648;50.614;13.830;2023-08-31T06:34:02;3.30;;;2.73;;
7213;SDS011;3648;50.614;13.830;2023-08-31T06:36:30;2.60;;;2.40;;
7213;SDS011;3648;50.614;13.830;2023-08-31T06:38:57;3.43;;;2.40;;
7213;SDS011;3648;50.614;13.830;2023-08-31T06:41:24;4.10;;;2.53;;
7213;SDS011;3648;50.614;13.830;2023-08-31T06:43:51;2.70;;;2.50;;
7213;SDS011;3648;50.614;13.830;2023-08-31T06:46:18;3.00;;;2.70;;
7213;SDS011;3648;50.614;13.830;2023-08-31T06:48:44;2.87;;;2.47;;
7213;SDS011;3648;50.614;13.830;2023-08-31T06:51:13;2.83;;;2.53;;
7213;SDS011;3648;50.614;13.830;2023-08-31T06:53:40;3.23;;;2.20;;
7213;SDS011;3648;50.614;13.830;2023-08-31T06:56:08;3.50;;;2.50;;
7213;SDS011;3648;50.614;13.830;2023-08-31T06:58:34;2.40;;;2.20;;
7213;SDS011;3648;50.614;13.830;2023-08-31T07:01:05;2.50;;;2.10;;
7213;SDS011;3648;50.614;13.830;2023-08-31T07:03:32;5.03;;;2.60;;
7213;SDS011;3648;50.614;13.830;2023-08-31T07:05:59;3.03;;;2.00;;
7213;SDS011;3648;50.614;13.830;2023-08-31T07:08:27;2.63;;;1.87;;
7213;SDS011;3648;50.614;13.830;2023-08-31T07:10:55;2.40;;;1.90;;
7213;SDS011;3648;50.614;13.830;2023-08-31T07:13:22;2.40;;;1.60;;
7213;SDS011;3648;50.614;13.830;2023-08-31T07:15:49;2.77;;;2.37;;
7213;SDS011;3648;50.614;13.830;2023-08-31T07:18:16;2.07;;;1.77;;
7213;SDS011;3648;50.614;13.830;2023-08-31T07:20:45;3.53;;;2.03;;
7213;SDS011;3648;50.614;13.830;2023-08-31T07:23:12;3.40;;;2.30;;
7213;SDS011;3648;50.614;13.830;2023-08-31T07:25:44;3.37;;;1.87;;
7213;SDS011;3648;50.614;13.830;2023-08-31T07:28:12;1.70;;;1.60;;
7213;SDS011;3648;50.614;13.830;2023-08-31T07:30:39;3.03;;;2.03;;
7213;SDS011;3648;50.614;13.830;2023-08-31T07:33:06;3.27;;;1.97;;
7213;SDS011;3648;50.614;13.830;2023-08-31T07:35:33;2.10;;;1.63;;
7213;SDS011;3648;50.614;13.830;2023-08-31T07:38:01;2.03;;;1.83;;
7213;SDS011;3648;50.614;13.830;2023-08-31T07:40:29;2.67;;;1.90;;
7213;SDS011;3648;50.614;13.830;2023-08-31T07:42:57;2.43;;;1.90;;
7213;SDS011;3648;50.614;13.830;2023-08-31T07:45:24;2.90;;;1.90;;
7213;SDS011;3648;50.614;13.830;2023-08-31T07:47:51;1.93;;;1.83;;
7213;SDS011;3648;50.614;13.830;2023-08-31T07:50:18;2.43;;;1.80;;
7213;SDS011;3648;50.614;13.830;2023-08-31T07:52:45;1.83;;;1.50;;
7213;SDS011;3648;50.614;13.830;2023-08-31T07:55:12;1.67;;;1.57;;
7213;SDS011;3648;50.614;13.830;2023-08-31T07:57:39;2.47;;;1.70;;
7213;SDS011;3648;50.614;13.830;2023-08-31T08:00:08;2.60;;;1.87;;
7213;SDS011;3648;50.614;13.830;2023-08-31T08:02:35;2.70;;;2.10;;
7213;SDS011;3648;50.614;13.830;2023-08-31T08:05:03;3.03;;;1.60;;
7213;SDS011;3648;50.614;13.830;2023-08-31T08:07:30;2.23;;;1.87;;
7213;SDS011;3648;50.614;13.830;2023-08-31T08:09:57;3.17;;;1.80;;
7213;SDS011;3648;50.614;13.830;2023-08-31T08:12:25;2.73;;;1.50;;
7213;SDS011;3648;50.614;13.830;2023-08-31T08:14:52;2.33;;;1.80;;
7213;SDS011;3648;50.614;13.830;2023-08-31T08:17:20;1.90;;;1.70;;
7213;SDS011;3648;50.614;13.830;2023-08-31T08:19:47;1.67;;;1.50;;
7213;SDS011;3648;50.614;13.830;2023-08-31T08:22:14;2.53;;;1.80;;
7213;SDS011;3648;50.614;13.830;2023-08-31T08:24:41;1.73;;;1.50;;
7213;SDS011;3648;50.614;13.830;2023-08-31T08:27:08;1.80;;;1.70;;
7213;SDS011;3648;50.614;13.830;2023-08-31T08:29:35;1.60;;;1.50;;
7213;SDS011;3648;50.614;13.830;2023-08-31T08:32:02;2.07;;;1.63;;
7213;SDS011;3648;50.614;13.830;2023-08-31T08:34:32;2.00;;;1.53;;
7213;SDS011;3648;50.614;13.830;2023-08-31T08:36:58;1.70;;;1.57;;
7213;SDS011;3648;50.614;13.830;2023-08-31T08:39:25;2.10;;;1.60;;
7213;SDS011;3648;50.614;13.830;2023-08-31T08:41:52;3.13;;;2.00;;
7213;SDS011;3648;50.614;13.830;2023-08-31T08:44:21;1.70;;;1.57;;
7213;SDS011;3648;50.614;13.830;2023-08-31T08:46:51;2.27;;;1.70;;
7213;SDS011;3648;50.614;13.830;2023-08-31T08:49:18;1.80;;;1.50;;
7213;SDS011;3648;50.614;13.830;2023-08-31T08:51:47;1.87;;;1.47;;
7213;SDS011;3648;50.614;13.830;2023-08-31T08:54:15;1.70;;;1.40;;
7213;SDS011;3648;50.614;13.830;2023-08-31T08:56:43;2.63;;;1.60;;
7213;SDS011;3648;50.614;13.830;2023-08-31T08:59:10;1.83;;;1.53;;
7213;SDS011;3648;50.614;13.830;2023-08-31T09:01:38;1.87;;;1.30;;
7213;SDS011;3648;50.614;13.830;2023-08-31T09:04:05;2.03;;;1.60;;
7213;SDS011;3648;50.614;13.830;2023-08-31T09:06:32;1.67;;;1.33;;
7213;SDS011;3648;50.614;13.830;2023-08-31T09:09:01;3.07;;;1.80;;
7213;SDS011;3648;50.614;13.830;2023-08-31T09:11:28;2.40;;;1.50;;
7213;SDS011;3648;50.614;13.830;2023-08-31T09:13:57;1.73;;;1.63;;
7213;SDS011;3648;50.614;13.830;2023-08-31T09:16:24;3.80;;;1.70;;
7213;SDS011;3648;50.614;13.830;2023-08-31T09:18:53;1.33;;;1.23;;
7213;SDS011;3648;50.614;13.830;2023-08-31T09:21:20;1.83;;;1.40;;
7213;SDS011;3648;50.614;13.830;2023-08-31T09:23:55;3.00;;;1.60;;
7213;SDS011;3648;50.614;13.830;2023-08-31T09:26:24;2.33;;;1.53;;
7213;SDS011;3648;50.614;13.830;2023-08-31T09:28:51;1.93;;;1.40;;
7213;SDS011;3648;50.614;13.830;2023-08-31T09:31:18;2.50;;;1.73;;
7213;SDS011;3648;50.614;13.830;2023-08-31T09:33:49;1.90;;;1.50;;
7213;SDS011;3648;50.614;13.830;2023-08-31T09:36:17;1.43;;;1.30;;
7213;SDS011;3648;50.614;13.830;2023-08-31T09:38:47;3.90;;;1.40;;
7213;SDS011;3648;50.614;13.830;2023-08-31T09:41:14;1.37;;;1.27;;
7213;SDS011;3648;50.614;13.830;2023-08-31T09:43:42;2.33;;;1.63;;
7213;SDS011;3648;50.614;13.830;2023-08-31T09:46:09;1.60;;;1.30;;
7213;SDS011;3648;50.614;13.830;2023-08-31T09:48:36;1.60;;;1.30;;
7213;SDS011;3648;50.614;13.830;2023-08-31T09:51:06;1.43;;;1.33;;
7213;SDS011;3648;50.614;13.830;2023-08-31T09:53:36;1.80;;;1.17;;
7213;SDS011;3648;50.614;13.830;2023-08-31T09:56:04;1.30;;;1.20;;
7213;SDS011;3648;50.614;13.830;2023-08-31T09:58:32;1.60;;;1.33;;
7213;SDS011;3648;50.614;13.830;2023-08-31T10:01:01;1.33;;;1.10;;
7213;SDS011;3648;50.614;13.830;2023-08-31T10:03:28;2.93;;;1.13;;
7213;SDS011;3648;50.614;13.830;2023-08-31T10:05:56;1.93;;;1.30;;
7213;SDS011;3648;50.614;13.830;2023-08-31T10:08:25;3.83;;;1.20;;
7213;SDS011;3648;50.614;13.830;2023-08-31T10:10:56;1.57;;;1.20;;
7213;SDS011;3648;50.614;13.830;2023-08-31T10:13:25;2.03;;;1.40;;
7213;SDS011;3648;50.614;13.830;2023-08-31T10:15:56;2.23;;;1.23;;
7213;SDS011;3648;50.614;13.830;2023-08-31T10:18:25;1.60;;;1.33;;
7213;SDS011;3648;50.614;13.830;2023-08-31T10:20:54;1.30;;;1.07;;
7213;SDS011;3648;50.614;13.830;2023-08-31T10:23:21;2.37;;;1.27;;
7213;SDS011;3648;50.614;13.830;2023-08-31T10:25:59;1.20;;;1.10;;
7213;SDS011;3648;50.614;13.830;2023-08-31T10:28:28;1.53;;;1.20;;
7213;SDS011;3648;50.614;13.830;2023-08-31T10:31:02;2.03;;;1.30;;
7213;SDS011;3648;50.614;13.830;2023-08-31T10:33:32;1.83;;;1.30;;
7213;SDS011;3648;50.614;13.830;2023-08-31T10:36:00;1.83;;;1.43;;
7213;SDS011;3648;50.614;13.830;2023-08-31T10:38:28;1.50;;;1.40;;
7213;SDS011;3648;50.614;13.830;2023-08-31T10:40:59;1.50;;;1.10;;
7213;SDS011;3648;50.614;13.830;2023-08-31T10:43:28;1.17;;;1.07;;
7213;SDS011;3648;50.614;13.830;2023-08-31T10:46:17;1.30;;;1.20;;
7213;SDS011;3648;50.614;13.830;2023-08-31T10:48:52;1.67;;;1.37;;
7213;SDS011;3648;50.614;13.830;2023-08-31T10:51:24;1.63;;;1.40;;
7213;SDS011;3648;50.614;13.830;2023-08-31T10:53:52;2.47;;;1.23;;
7213;SDS011;3648;50.614;13.830;2023-08-31T10:56:29;1.70;;;1.00;;
7213;SDS011;3648;50.614;13.830;2023-08-31T10:58:57;1.30;;;1.00;;
7213;SDS011;3648;50.614;13.830;2023-08-31T11:04:21;1.83;;;1.20;;
7213;SDS011;3648;50.614;13.830;2023-08-31T11:06:49;1.73;;;1.17;;
7213;SDS011;3648;50.614;13.830;2023-08-31T11:09:31;1.60;;;1.27;;
7213;SDS011;3648;50.614;13.830;2023-08-31T11:11:59;2.20;;;1.40;;
7213;SDS011;3648;50.614;13.830;2023-08-31T11:14:27;1.27;;;1.13;;
7213;SDS011;3648;50.614;13.830;2023-08-31T11:16:54;1.60;;;1.37;;
7213;SDS011;3648;50.614;13.830;2023-08-31T11:19:23;1.47;;;1.37;;
7213;SDS011;3648;50.614;13.830;2023-08-31T11:21:51;2.03;;;1.10;;
7213;SDS011;3648;50.614;13.830;2023-08-31T11:24:20;1.50;;;1.40;;
7213;SDS011;3648;50.614;13.830;2023-08-31T11:26:48;2.37;;;1.50;;
7213;SDS011;3648;50.614;13.830;2023-08-31T11:29:16;1.13;;;1.00;;
7213;SDS011;3648;50.614;13.830;2023-08-31T11:31:43;1.23;;;1.13;;
7213;SDS011;3648;50.614;13.830;2023-08-31T11:34:12;2.87;;;1.20;;
7213;SDS011;3648;50.614;13.830;2023-08-31T11:36:42;1.97;;;1.23;;
7213;SDS011;3648;50.614;13.830;2023-08-31T11:39:09;1.40;;;1.30;;
7213;SDS011;3648;50.614;13.830;2023-08-31T11:41:36;1.40;;;1.13;;
7213;SDS011;3648;50.614;13.830;2023-08-31T11:44:08;1.83;;;1.27;;
7213;SDS011;3648;50.614;13.830;2023-08-31T11:46:46;1.80;;;1.53;;
7213;SDS011;3648;50.614;13.830;2023-08-31T11:49:15;1.97;;;1.30;;
7213;SDS011;3648;50.614;13.830;2023-08-31T11:51:44;2.00;;;1.33;;
7213;SDS011;3648;50.614;13.830;2023-08-31T11:54:14;1.30;;;1.20;;
7213;SDS011;3648;50.614;13.830;2023-08-31T11:56:43;1.20;;;1.10;;
7213;SDS011;3648;50.614;13.830;2023-08-31T11:59:11;1.70;;;1.20;;
7213;SDS011;3648;50.614;13.830;2023-08-31T12:01:42;1.63;;;1.27;;
7213;SDS011;3648;50.614;13.830;2023-08-31T12:04:09;1.47;;;1.20;;
7213;SDS011;3648;50.614;13.830;2023-08-31T12:06:37;1.07;;;0.97;;
7213;SDS011;3648;50.614;13.830;2023-08-31T12:09:06;1.03;;;0.93;;
7213;SDS011;3648;50.614;13.830;2023-08-31T12:11:33;1.47;;;1.20;;
7213;SDS011;3648;50.614;13.830;2023-08-31T12:14:00;2.13;;;1.30;;
7213;SDS011;3648;50.614;13.830;2023-08-31T12:16:32;1.53;;;1.23;;
7213;SDS011;3648;50.614;13.830;2023-08-31T12:19:01;1.10;;;1.00;;
7213;SDS011;3648;50.614;13.830;2023-08-31T12:21:30;2.20;;;1.27;;
7213;SDS011;3648;50.614;13.830;2023-08-31T12:23:57;1.63;;;1.40;;
7213;SDS011;3648;50.614;13.830;2023-08-31T12:26:26;2.30;;;1.00;;
7213;SDS011;3648;50.614;13.830;2023-08-31T12:28:53;1.20;;;1.10;;
7213;SDS011;3648;50.614;13.830;2023-08-31T12:31:21;1.67;;;1.20;;
7213;SDS011;3648;50.614;13.830;2023-08-31T12:33:49;1.40;;;1.17;;
7213;SDS011;3648;50.614;13.830;2023-08-31T12:36:16;1.27;;;1.10;;
7213;SDS011;3648;50.614;13.830;2023-08-31T12:38:44;1.27;;;1.10;;
7213;SDS011;3648;50.614;13.830;2023-08-31T12:41:14;1.77;;;1.20;;
7213;SDS011;3648;50.614;13.830;2023-08-31T12:43:46;2.40;;;1.30;;
7213;SDS011;3648;50.614;13.830;2023-08-31T12:46:13;1.13;;;1.03;;
7213;SDS011;3648;50.614;13.830;2023-08-31T12:48:41;2.20;;;1.30;;
7213;SDS011;3648;50.614;13.830;2023-08-31T12:51:09;1.30;;;1.20;;
7213;SDS011;3648;50.614;13.830;2023-08-31T12:53:37;1.80;;;1.27;;
7213;SDS011;3648;50.614;13.830;2023-08-31T12:56:05;1.20;;;1.03;;
7213;SDS011;3648;50.614;13.830;2023-08-31T12:58:32;1.70;;;1.00;;
7213;SDS011;3648;50.614;13.830;2023-08-31T13:01:00;1.03;;;0.93;;
7213;SDS011;3648;50.614;13.830;2023-08-31T13:03:28;2.33;;;1.30;;
7213;SDS011;3648;50.614;13.830;2023-08-31T13:05:55;1.73;;;1.30;;
7213;SDS011;3648;50.614;13.830;2023-08-31T13:08:22;1.60;;;1.07;;
7213;SDS011;3648;50.614;13.830;2023-08-31T13:10:52;1.63;;;1.20;;
7213;SDS011;3648;50.614;13.830;2023-08-31T13:13:20;2.00;;;1.23;;
7213;SDS011;3648;50.614;13.830;2023-08-31T13:15:48;1.47;;;1.30;;
7213;SDS011;3648;50.614;13.830;2023-08-31T13:18:16;2.63;;;1.50;;
7213;SDS011;3648;50.614;13.830;2023-08-31T13:20:48;1.90;;;1.10;;
7213;SDS011;3648;50.614;13.830;2023-08-31T13:23:16;2.70;;;1.43;;
7213;SDS011;3648;50.614;13.830;2023-08-31T13:25:43;1.20;;;1.10;;
7213;SDS011;3648;50.614;13.830;2023-08-31T13:28:10;1.83;;;1.30;;
7213;SDS011;3648;50.614;13.830;2023-08-31T13:30:37;1.67;;;1.30;;
7213;SDS011;3648;50.614;13.830;2023-08-31T13:33:04;1.90;;;1.13;;
7213;SDS011;3648;50.614;13.830;2023-08-31T13:35:33;2.10;;;1.50;;
7213;SDS011;3648;50.614;13.830;2023-08-31T13:38:00;2.50;;;1.17;;
7213;SDS011;3648;50.614;13.830;2023-08-31T13:40:27;2.47;;;1.30;;
7213;SDS011;3648;50.614;13.830;2023-08-31T13:42:55;1.90;;;1.50;;
7213;SDS011;3648;50.614;13.830;2023-08-31T13:45:26;1.50;;;1.10;;
7213;SDS011;3648;50.614;13.830;2023-08-31T13:47:53;1.67;;;1.30;;
7213;SDS011;3648;50.614;13.830;2023-08-31T13:50:20;1.87;;;1.13;;
7213;SDS011;3648;50.614;13.830;2023-08-31T13:52:49;2.57;;;1.30;;
7213;SDS011;3648;50.614;13.830;2023-08-31T13:55:15;6.43;;;1.60;;
7213;SDS011;3648;50.614;13.830;2023-08-31T13:57:43;1.30;;;1.10;;
7213;SDS011;3648;50.614;13.830;2023-08-31T14:00:10;1.63;;;1.20;;
7213;SDS011;3648;50.614;13.830;2023-08-31T14:02:38;2.33;;;1.23;;
7213;SDS011;3648;50.614;13.830;2023-08-31T14:05:06;1.50;;;1.40;;
7213;SDS011;3648;50.614;13.830;2023-08-31T14:07:35;2.40;;;1.13;;
7213;SDS011;3648;50.614;13.830;2023-08-31T14:10:04;5.53;;;1.50;;
7213;SDS011;3648;50.614;13.830;2023-08-31T14:12:32;1.20;;;1.10;;
7213;SDS011;3648;50.614;13.830;2023-08-31T14:14:59;2.97;;;1.50;;
7213;SDS011;3648;50.614;13.830;2023-08-31T14:17:29;2.17;;;0.90;;
7213;SDS011;3648;50.614;13.830;2023-08-31T14:19:58;3.17;;;1.30;;
7213;SDS011;3648;50.614;13.830;2023-08-31T14:22:26;1.67;;;1.20;;
7213;SDS011;3648;50.614;13.830;2023-08-31T14:24:54;2.20;;;1.20;;
7213;SDS011;3648;50.614;13.830;2023-08-31T14:27:22;1.47;;;1.30;;
7213;SDS011;3648;50.614;13.830;2023-08-31T14:29:50;2.07;;;1.30;;
7213;SDS011;3648;50.614;13.830;2023-08-31T14:32:17;3.07;;;1.10;;
7213;SDS011;3648;50.614;13.830;2023-08-31T14:34:45;1.40;;;1.30;;
7213;SDS011;3648;50.614;13.830;2023-08-31T14:37:12;1.40;;;1.00;;
7213;SDS011;3648;50.614;13.830;2023-08-31T14:39:39;1.37;;;0.97;;
7213;SDS011;3648;50.614;13.830;2023-08-31T14:42:06;2.07;;;1.17;;
7213;SDS011;3648;50.614;13.830;2023-08-31T14:44:35;4.40;;;1.40;;
7213;SDS011;3648;50.614;13.830;2023-08-31T14:47:02;2.97;;;1.40;;
7213;SDS011;3648;50.614;13.830;2023-08-31T14:49:29;1.53;;;1.00;;
7213;SDS011;3648;50.614;13.830;2023-08-31T14:51:57;1.20;;;1.00;;
7213;SDS011;3648;50.614;13.830;2023-08-31T14:54:29;1.70;;;1.00;;
7213;SDS011;3648;50.614;13.830;2023-08-31T14:56:57;1.40;;;1.20;;
7213;SDS011;3648;50.614;13.830;2023-08-31T14:59:24;5.43;;;3.73;;
7213;SDS011;3648;50.614;13.830;2023-08-31T15:01:53;2.07;;;1.37;;
7213;SDS011;3648;50.614;13.830;2023-08-31T15:04:20;2.30;;;1.47;;
7213;SDS011;3648;50.614;13.830;2023-08-31T15:06:48;1.83;;;1.60;;
7213;SDS011;3648;50.614;13.830;2023-08-31T15:09:15;2.30;;;1.67;;